Time;durP1;ratioP1;P1;durP2;ratioP2;P2;SDS_P1;SDS_P2;PMS_P1;PMS_P2;Temp;Humidity;BMP_temperature;BMP_pressure;BME280_temperature;BME280_humidity;BME280_pressure;Samples;Min_cycle;Max_cycle;Signal;HPM_P1;HPM_P2
2022/06/02 00:00:22;;;;;;;6.38;3.15;;;;;;;21.14;78.24;98294.13;5040792;28;20189;-60
2022/06/02 00:02:59;;;;;;;4.32;3.42;;;;;;;21.15;77.98;98296.59;5039381;28;20187;-60
2022/06/02 00:05:28;;;;;;;4.20;3.60;;;;;;;21.13;78.48;98290.69;5044441;28;20189;-60
2022/06/02 00:08:17;;;;;;;3.58;3.28;;;;;;;20.99;79.23;98298.50;5032828;28;20184;-60
2022/06/02 00:11:34;;;;;;;7.05;3.63;;;;;;;21.06;79.00;98294.19;5036459;28;20690;-60
2022/06/02 00:14:10;;;;;;;3.83;3.40;;;;;;;21.10;78.62;98301.53;5020015;28;20204;-60
2022/06/02 00:16:53;;;;;;;4.15;3.30;;;;;;;21.07;78.78;98301.06;5024146;28;20615;-60
2022/06/02 00:19:35;;;;;;;3.47;3.28;;;;;;;21.07;78.54;98307.16;5039681;28;20242;-60
2022/06/02 00:22:07;;;;;;;4.60;3.13;;;;;;;21.10;78.27;98311.28;5049904;28;20217;-60
2022/06/02 00:24:40;;;;;;;4.15;3.67;;;;;;;21.03;78.01;98278.75;5050007;28;20188;-60
2022/06/02 00:27:09;;;;;;;3.45;3.25;;;;;;;21.21;78.11;98308.25;5035782;28;20177;-61
2022/06/02 00:29:34;;;;;;;3.42;3.22;;;;;;;21.24;77.71;98311.34;5038222;28;20232;-60
2022/06/02 00:32:08;;;;;;;3.08;2.80;;;;;;;21.12;78.08;98314.53;5042106;28;20209;-60
2022/06/02 00:34:37;;;;;;;6.70;3.90;;;;;;;21.09;78.48;98320.16;5040836;28;20180;-60
2022/06/02 00:37:08;;;;;;;3.90;3.60;;;;;;;20.97;78.96;98309.19;5043433;28;20181;-61
2022/06/02 00:39:35;;;;;;;4.45;3.67;;;;;;;20.95;79.98;98312.97;5046488;28;20181;-60
2022/06/02 00:42:13;;;;;;;3.28;3.03;;;;;;;20.89;79.86;98325.03;5044793;28;20272;-60
2022/06/02 00:44:50;;;;;;;4.10;3.28;;;;;;;20.91;79.31;98311.69;5045516;28;21254;-60
2022/06/02 00:47:55;;;;;;;5.65;3.28;;;;;;;20.92;79.29;98308.88;5041522;28;20188;-60
2022/06/02 00:50:33;;;;;;;3.70;3.40;;;;;;;20.92;78.91;98308.88;5048318;28;20974;-61
2022/06/02 00:53:11;;;;;;;3.83;3.38;;;;;;;20.96;79.09;98309.34;5039601;28;20663;-60
2022/06/02 00:59:20;;;;;;;4.28;3.28;;;;;;;20.86;79.24;98299.03;5023784;28;20205;-61
2022/06/02 01:01:45;;;;;;;3.55;3.25;;;;;;;20.80;79.78;98293.66;5036023;28;20689;-61
2022/06/02 01:04:15;;;;;;;3.92;3.63;;;;;;;20.89;79.48;98293.47;5039405;28;20205;-60
2022/06/02 01:07:05;;;;;;;4.13;3.83;;;;;;;20.81;80.06;98284.75;5045331;28;20190;-61
2022/06/02 01:10:07;;;;;;;4.55;3.85;;;;;;;20.88;79.91;98293.59;5043980;28;20192;-60
2022/06/02 01:13:00;;;;;;;4.57;4.20;;;;;;;20.83;79.48;98290.66;5042314;28;20189;-60
2022/06/02 01:15:52;;;;;;;3.92;3.53;;;;;;;20.71;80.10;98290.22;5030862;28;20726;-60
2022/06/02 01:18:28;;;;;;;3.78;3.47;;;;;;;20.64;80.25;98276.09;5022586;28;20176;-60
2022/06/02 01:21:35;;;;;;;3.53;3.22;;;;;;;20.61;81.08;98273.00;5025297;28;20246;-60
2022/06/02 01:24:02;;;;;;;5.13;3.58;;;;;;;20.58;81.25;98273.34;5038682;28;20173;-60
2022/06/02 01:26:30;;;;;;;4.15;3.17;;;;;;;20.55;81.57;98265.78;5036204;28;20200;-61
2022/06/02 01:29:13;;;;;;;6.65;3.47;;;;;;;20.58;81.30;98268.09;5035363;28;20256;-61
2022/06/02 01:32:07;;;;;;;5.88;3.65;;;;;;;20.58;80.87;98273.34;5038041;28;20185;-60
2022/06/02 01:35:00;;;;;;;4.93;3.83;;;;;;;20.57;81.27;98274.34;5037143;28;20185;-61
2022/06/02 01:37:42;;;;;;;4.18;3.60;;;;;;;20.34;83.03;98271.63;5036019;28;20780;-61
2022/06/02 01:40:27;;;;;;;4.40;4.00;;;;;;;20.33;83.20;98263.94;5037865;28;20177;-61
2022/06/02 01:43:00;;;;;;;4.00;3.60;;;;;;;20.42;82.61;98265.53;5040785;28;20600;-61
2022/06/02 01:45:54;;;;;;;3.90;3.60;;;;;;;20.33;82.95;98271.81;5039775;28;20173;-60
2022/06/02 01:48:33;;;;;;;3.35;3.05;;;;;;;20.22;83.11;98266.91;5048799;28;20196;-60
2022/06/02 01:51:08;;;;;;;4.10;3.58;;;;;;;20.16;84.36;98267.59;5038770;28;20200;-60
2022/06/02 01:54:16;;;;;;;3.92;3.63;;;;;;;20.18;84.59;98276.09;5039776;28;20180;-60
2022/06/02 01:57:20;;;;;;;3.60;3.40;;;;;;;20.24;83.97;98268.38;5041721;28;20315;-60
2022/06/02 01:59:48;;;;;;;3.60;3.33;;;;;;;20.18;83.95;98258.56;5038182;28;20235;-60
2022/06/02 02:02:13;;;;;;;4.32;3.92;;;;;;;20.29;82.90;98267.88;5039836;28;20728;-60
2022/06/02 02:04:45;;;;;;;4.40;3.70;;;;;;;20.28;82.68;98260.97;5038625;28;20181;-60
2022/06/02 02:07:30;;;;;;;5.15;3.70;;;;;;;20.25;83.45;98267.41;5044029;28;20228;-60
2022/06/02 02:10:39;;;;;;;6.53;3.58;;;;;;;20.21;83.19;98260.00;5033875;28;20683;-60
2022/06/02 02:13:23;;;;;;;3.60;3.30;;;;;;;20.19;83.64;98275.94;5036657;28;20598;-60
2022/06/02 02:16:27;;;;;;;3.95;3.50;;;;;;;20.28;82.98;98274.94;5030054;28;20182;-60
2022/06/02 02:19:31;;;;;;;4.22;3.80;;;;;;;20.31;83.00;98276.41;5025570;28;20184;-60
2022/06/02 02:22:23;;;;;;;4.55;4.13;;;;;;;20.30;83.02;98291.38;5018277;28;20189;-60
2022/06/02 02:25:21;;;;;;;5.15;3.53;;;;;;;20.08;84.48;98291.22;5029804;28;20643;-60
2022/06/02 02:28:02;;;;;;;4.40;4.00;;;;;;;20.05;84.69;98287.09;5039767;28;20197;-60
2022/06/02 02:30:44;;;;;;;3.75;3.50;;;;;;;19.96;85.40;98267.09;5040407;28;20197;-60
2022/06/02 02:33:52;;;;;;;3.72;3.38;;;;;;;19.97;85.92;98275.78;5039092;28;20181;-60
2022/06/02 02:36:49;;;;;;;4.75;3.55;;;;;;;20.02;85.57;98276.09;5039371;28;20189;-60
2022/06/02 02:39:29;;;;;;;4.15;3.72;;;;;;;20.02;85.00;98276.94;5016609;28;20765;-60
2022/06/02 02:42:12;;;;;;;5.28;3.47;;;;;;;20.03;84.98;98275.13;5017844;28;20667;-60
2022/06/02 02:44:46;;;;;;;3.70;3.33;;;;;;;20.02;84.99;98270.84;5019703;28;20178;-61
2022/06/02 02:47:36;;;;;;;3.80;3.45;;;;;;;19.95;84.65;98267.25;5037618;28;20184;-60
2022/06/02 02:50:08;;;;;;;4.22;3.90;;;;;;;20.00;84.72;98275.47;5039437;28;20193;-60
2022/06/02 02:52:59;;;;;;;7.80;3.90;;;;;;;19.89;84.79;98267.94;5038238;28;20173;-60
2022/06/02 02:55:50;;;;;;;3.95;3.55;;;;;;;19.79;85.18;98275.16;5036377;28;20177;-60
2022/06/02 02:58:40;;;;;;;4.18;3.45;;;;;;;19.94;85.53;98281.38;5042736;28;20208;-60
2022/06/02 03:01:11;;;;;;;5.35;3.97;;;;;;;20.01;85.97;98285.81;5024903;28;20340;-61
2022/06/02 03:03:43;;;;;;;3.92;3.50;;;;;;;20.00;85.77;98283.34;5017634;28;20184;-61
2022/06/02 03:06:17;;;;;;;5.82;3.67;;;;;;;20.00;85.81;98285.97;5020784;28;20185;-60
2022/06/02 03:09:07;;;;;;;3.72;3.42;;;;;;;20.00;85.20;98285.97;5037772;28;20176;-61
2022/06/02 03:11:57;;;;;;;4.07;3.60;;;;;;;20.01;84.94;98287.59;5030383;28;20185;-60
2022/06/02 03:15:03;;;;;;;5.18;3.63;;;;;;;20.03;84.67;98283.00;5046840;28;20185;-60
2022/06/02 03:17:35;;;;;;;4.95;3.90;;;;;;;19.99;84.89;98273.81;5045575;28;21573;-60
2022/06/02 03:20:44;;;;;;;6.78;3.92;;;;;;;19.97;84.73;98274.00;5037810;28;20178;-60
2022/06/02 03:23:49;;;;;;;5.43;3.63;;;;;;;20.12;84.03;98288.09;5016560;28;20194;-60
2022/06/02 03:27:01;;;;;;;5.57;3.50;;;;;;;19.99;86.54;98289.59;5018470;28;20296;-60
2022/06/02 03:29:39;;;;;;;5.53;4.28;;;;;;;19.88;87.87;98300.44;5033486;28;20284;-60
2022/06/02 03:32:34;;;;;;;8.98;4.40;;;;;;;19.93;89.43;98292.88;5034907;28;20185;-60
2022/06/02 03:35:11;;;;;;;9.18;5.13;;;;;;;20.03;88.38;98298.75;5036076;28;20201;-60
2022/06/02 03:37:51;;;;;;;13.13;5.32;;;;;;;20.28;88.28;98295.16;5033899;28;20255;-60
2022/06/02 03:40:59;;;;;;;11.73;5.13;;;;;;;20.48;86.64;98296.38;5036054;28;20181;-60
2022/06/02 03:43:51;;;;;;;11.93;4.57;;;;;;;20.66;84.92;98294.34;5034916;28;20269;-60
2022/06/02 03:46:51;;;;;;;9.55;4.72;;;;;;;20.68;83.59;98290.56;5037084;28;20195;-61
2022/06/02 03:49:42;;;;;;;9.70;4.35;;;;;;;20.44;85.85;98297.69;5038763;28;20228;-61
2022/06/02 03:52:13;;;;;;;7.65;4.90;;;;;;;20.52;86.86;98303.75;5038975;28;20267;-61
2022/06/02 03:55:27;;;;;;;6.13;3.95;;;;;;;20.57;83.73;98308.53;5036682;28;20181;-60
2022/06/02 03:58:07;;;;;;;3.90;3.60;;;;;;;20.71;81.94;98303.38;5036387;28;20742;-60
2022/06/02 04:00:58;;;;;;;4.78;3.78;;;;;;;20.68;80.42;98276.59;5044642;28;20215;-60
2022/06/02 04:03:48;;;;;;;4.55;3.88;;;;;;;20.80;80.50;98293.66;5034885;28;20484;-60
2022/06/02 04:06:28;;;;;;;5.63;3.40;;;;;;;20.86;80.85;98300.84;5035908;28;20379;-60
2022/06/02 04:08:59;;;;;;;5.05;3.15;;;;;;;20.77;81.22;98293.97;5037961;28;20662;-60
2022/06/02 04:13:37;;;;;;;4.25;3.30;;;;;;;20.74;80.99;98294.31;5043157;28;20185;-60
2022/06/02 04:14:43;;;;;;;5.22;3.97;;;;;;;20.77;80.99;98293.97;5040625;28;20635;-60
2022/06/02 04:17:38;;;;;;;7.63;4.35;;;;;;;20.94;81.04;98295.56;5036818;28;20228;-60
2022/06/02 04:20:35;;;;;;;4.82;4.15;;;;;;;20.92;80.83;98297.56;5035948;28;20390;-60
2022/06/02 04:23:11;;;;;;;4.30;4.00;;;;;;;20.84;81.74;98294.91;5027269;28;20205;-61
2022/06/02 04:26:03;;;;;;;4.25;3.85;;;;;;;20.96;80.62;98294.41;5031387;28;20622;-60
2022/06/02 04:28:49;;;;;;;4.60;3.50;;;;;;;21.07;80.10;98298.44;5036394;28;20205;-60
2022/06/02 04:31:36;;;;;;;6.47;3.67;;;;;;;21.07;79.89;98298.44;5035761;28;21075;-61
2022/06/02 04:34:23;;;;;;;3.58;3.22;;;;;;;21.28;79.48;98303.94;5045055;28;20180;-60
2022/06/02 04:37:07;;;;;;;3.97;3.50;;;;;;;21.40;79.08;98302.53;5036174;28;20679;-61
2022/06/02 04:39:37;;;;;;;10.73;4.38;;;;;;;21.52;78.05;98309.00;5029807;28;20563;-60
2022/06/02 04:42:15;;;;;;;4.38;4.07;;;;;;;21.43;77.44;98302.16;5036297;28;20177;-61
2022/06/02 04:45:14;;;;;;;3.75;3.45;;;;;;;21.38;77.93;98305.31;5040208;28;20181;-61
2022/06/02 04:47:49;;;;;;;4.43;3.83;;;;;;;21.39;78.00;98303.53;5015488;28;20193;-61
2022/06/02 04:50:25;;;;;;;6.65;4.10;;;;;;;21.52;78.48;98306.38;5016944;28;20297;-60
2022/06/02 04:53:12;;;;;;;3.75;3.55;;;;;;;21.73;77.70;98310.03;5028033;28;20595;-61
2022/06/02 04:55:53;;;;;;;4.90;3.70;;;;;;;21.93;77.20;98311.19;5030457;28;20173;-61
2022/06/02 04:58:31;;;;;;;3.83;3.53;;;;;;;22.00;76.25;98312.09;5033097;28;20217;-61
2022/06/02 05:01:08;;;;;;;3.55;3.28;;;;;;;22.14;75.18;98323.69;5042547;28;20176;-61
2022/06/02 05:03:42;;;;;;;5.82;3.35;;;;;;;22.13;75.52;98314.94;5032938;28;20180;-61
2022/06/02 05:06:52;;;;;;;3.95;3.40;;;;;;;22.15;75.43;98320.84;5038678;28;20181;-61
2022/06/02 05:09:44;;;;;;;4.20;3.85;;;;;;;22.35;75.57;98321.16;5038603;28;20748;-61
2022/06/02 05:12:36;;;;;;;3.90;3.50;;;;;;;22.39;73.97;98306.59;5041614;28;20772;-62
2022/06/02 05:15:13;;;;;;;5.70;3.63;;;;;;;22.42;73.41;98324.69;5048253;28;20256;-61
2022/06/02 05:17:48;;;;;;;4.38;3.97;;;;;;;22.22;74.86;98315.69;5038004;28;20495;-62
2022/06/02 05:20:14;;;;;;;5.72;3.33;;;;;;;22.29;74.64;98321.88;5038176;28;20566;-60
2022/06/02 05:23:07;;;;;;;5.03;3.67;;;;;;;22.40;74.53;98318.78;5037945;28;20192;-62
2022/06/02 05:26:04;;;;;;;3.50;3.20;;;;;;;22.50;73.38;98319.38;5035086;28;20189;-61
2022/06/02 05:28:45;;;;;;;4.07;3.63;;;;;;;22.61;73.33;98308.38;5041695;28;20188;-61
2022/06/02 05:31:16;;;;;;;3.72;3.42;;;;;;;22.74;72.86;98321.72;5039101;28;20255;-61
2022/06/02 05:33:47;;;;;;;4.15;3.55;;;;;;;22.85;72.69;98323.91;5041997;28;20185;-62
2022/06/02 05:36:31;;;;;;;4.90;4.10;;;;;;;22.90;73.47;98316.25;5034998;28;20190;-61
2022/06/02 05:39:54;;;;;;;3.58;3.38;;;;;;;22.98;72.50;98318.78;5040448;28;20178;-61
2022/06/02 05:42:31;;;;;;;4.05;3.42;;;;;;;23.14;71.43;98329.13;5042298;28;20280;-62
2022/06/02 05:44:59;;;;;;;10.00;8.27;;;;;;;23.17;71.05;98329.59;5038108;28;20650;-62
2022/06/02 05:48:00;;;;;;;5.88;3.72;;;;;;;23.17;71.36;98332.25;5037752;28;20231;-61
2022/06/02 05:50:31;;;;;;;4.10;3.55;;;;;;;23.24;70.88;98334.97;5019740;28;20209;-61
2022/06/02 05:53:09;;;;;;;3.83;3.47;;;;;;;23.34;70.73;98332.84;5019524;28;20173;-62
2022/06/02 05:55:52;;;;;;;3.45;3.15;;;;;;;23.39;70.95;98333.09;5027091;28;20181;-62
2022/06/02 05:58:46;;;;;;;3.60;3.25;;;;;;;23.50;69.44;98338.72;5045982;28;20209;-62
2022/06/02 06:01:17;;;;;;;3.72;3.38;;;;;;;23.48;69.77;98338.06;5038700;28;20596;-61
2022/06/02 06:03:43;;;;;;;3.80;3.50;;;;;;;23.65;69.16;98336.03;5047824;28;20223;-61
2022/06/02 06:06:23;;;;;;;4.00;3.60;;;;;;;23.73;68.92;98336.72;5037273;28;20651;-61
2022/06/02 06:09:14;;;;;;;3.63;3.42;;;;;;;23.86;68.90;98334.19;5039159;28;20177;-62
2022/06/02 06:12:09;;;;;;;3.75;3.35;;;;;;;23.96;67.67;98337.31;5018256;28;20267;-61
2022/06/02 06:15:08;;;;;;;3.30;3.00;;;;;;;24.05;67.85;98336.19;5019623;28;20178;-62
2022/06/02 06:17:42;;;;;;;4.18;3.78;;;;;;;24.09;67.20;98340.09;5034666;28;20637;-61
2022/06/02 06:20:35;;;;;;;4.25;3.95;;;;;;;24.20;67.20;98340.38;5039984;28;20181;-60
2022/06/02 06:23:19;;;;;;;3.92;3.63;;;;;;;24.27;67.29;98333.31;5038644;28;20215;-61
2022/06/02 06:25:58;;;;;;;3.90;3.50;;;;;;;24.39;66.81;98345.00;5038295;28;20181;-60
2022/06/02 06:28:31;;;;;;;4.78;3.35;;;;;;;24.40;66.53;98344.00;5036170;28;20201;-61
2022/06/02 06:31:15;;;;;;;6.68;3.72;;;;;;;24.42;66.02;98339.31;5034993;28;20247;-59
2022/06/02 06:34:02;;;;;;;3.55;3.25;;;;;;;24.58;66.86;98334.78;5017909;28;20186;-60
2022/06/02 06:36:30;;;;;;;3.55;3.25;;;;;;;24.75;65.54;98332.44;5020083;28;20846;-60
2022/06/02 06:39:03;;;;;;;3.75;3.45;;;;;;;24.94;65.66;98334.34;5032859;28;20189;-60
2022/06/02 06:41:57;;;;;;;4.85;3.40;;;;;;;25.11;65.02;98338.31;5042842;28;20190;-60
2022/06/02 06:44:41;;;;;;;3.72;3.42;;;;;;;25.22;63.41;98336.91;5044533;28;20181;-61
2022/06/02 06:47:19;;;;;;;5.07;3.90;;;;;;;25.31;63.59;98347.16;5034933;28;20173;-61
2022/06/02 06:49:51;;;;;;;4.20;3.50;;;;;;;25.51;63.11;98336.59;5035527;28;20193;-60
2022/06/02 06:52:54;;;;;;;4.47;3.83;;;;;;;25.48;61.84;98342.31;5037207;28;20217;-60
2022/06/02 06:55:52;;;;;;;8.25;3.90;;;;;;;25.48;60.92;98337.81;5037894;28;20185;-60
2022/06/02 06:58:42;;;;;;;7.32;4.28;;;;;;;25.69;60.62;98334.19;5038910;28;21100;-60
2022/06/02 07:01:28;;;;;;;4.80;3.65;;;;;;;25.86;60.08;98346.03;5032290;28;20639;-60
2022/06/02 07:04:06;;;;;;;5.72;4.00;;;;;;;26.02;61.10;98346.47;5046437;28;20185;-60
2022/06/02 07:06:47;;;;;;;8.30;4.25;;;;;;;26.14;60.99;98344.06;5039091;28;20310;-60
2022/06/02 07:09:47;;;;;;;7.13;3.75;;;;;;;26.32;60.24;98344.25;5033678;28;20659;-60
2022/06/02 07:15:15;;;;;;;6.75;4.50;;;;;;;26.50;59.38;98355.88;5016817;28;20248;-62
2022/06/02 07:18:03;;;;;;;11.55;4.30;;;;;;;26.59;58.39;98351.97;5018686;28;20685;-62
2022/06/02 07:20:39;;;;;;;4.80;3.83;;;;;;;26.68;57.93;98353.41;5029141;28;20268;-61
2022/06/02 07:23:17;;;;;;;8.88;4.60;;;;;;;26.75;58.63;98370.13;5033563;28;20207;-62
2022/06/02 07:25:57;;;;;;;8.85;4.97;;;;;;;26.81;58.76;98358.69;5031924;28;20180;-63
2022/06/02 07:28:38;;;;;;;7.53;5.05;;;;;;;26.88;58.72;98367.44;5035218;28;20260;-61
2022/06/02 07:31:23;;;;;;;6.88;4.50;;;;;;;26.96;57.71;98366.41;5039646;28;20201;-62
2022/06/02 07:33:48;;;;;;;8.75;4.50;;;;;;;26.97;57.08;98374.16;5029688;28;20176;-61
2022/06/02 07:36:20;;;;;;;8.77;3.95;;;;;;;27.02;58.60;98361.06;5015961;28;20650;-62
2022/06/02 07:38:45;;;;;;;14.57;5.15;;;;;;;27.12;58.67;98371.25;5018208;28;20189;-61
2022/06/02 07:41:32;;;;;;;8.65;4.68;;;;;;;27.18;57.78;98371.25;5036625;28;20195;-61
2022/06/02 07:44:14;;;;;;;7.75;5.05;;;;;;;27.28;57.59;98366.31;5047017;28;20181;-61
2022/06/02 07:46:56;;;;;;;8.98;4.90;;;;;;;27.36;56.68;98367.91;5041797;28;20706;-61
2022/06/02 07:49:46;;;;;;;8.35;4.30;;;;;;;27.42;56.79;98373.22;5034219;28;20204;-61
2022/06/02 07:52:30;;;;;;;6.47;3.95;;;;;;;27.44;56.24;98367.66;5033480;28;20589;-61
2022/06/02 07:55:11;;;;;;;7.68;4.95;;;;;;;27.43;56.02;98369.50;5036251;28;20176;-61
2022/06/02 07:57:56;;;;;;;12.82;6.18;;;;;;;27.52;55.33;98368.22;5036060;28;20220;-61
2022/06/02 08:00:25;;;;;;;11.80;5.53;;;;;;;27.60;55.39;98365.34;5038444;28;20246;-62
2022/06/02 08:03:04;;;;;;;12.70;4.97;;;;;;;27.65;54.87;98368.13;5041581;28;20196;-61
2022/06/02 08:05:41;;;;;;;12.13;6.72;;;;;;;27.78;55.11;98362.78;5027736;28;20194;-62
2022/06/02 08:08:16;;;;;;;13.32;7.07;;;;;;;27.83;55.05;98365.63;5030752;28;20272;-61
2022/06/02 08:11:16;;;;;;;12.35;6.55;;;;;;;27.92;53.36;98368.84;5046316;28;20366;-62
2022/06/02 08:13:51;;;;;;;16.05;5.60;;;;;;;27.86;53.58;98365.19;5032853;28;20655;-62
2022/06/02 08:16:26;;;;;;;11.40;5.93;;;;;;;27.81;53.96;98361.56;5036690;28;20188;-61
2022/06/02 08:19:17;;;;;;;12.27;5.60;;;;;;;27.88;53.98;98362.31;5036266;28;20880;-61
2022/06/02 08:21:52;;;;;;;16.90;5.97;;;;;;;27.94;54.13;98351.59;5038918;28;20560;-62
2022/06/02 08:24:29;;;;;;;17.50;5.22;;;;;;;28.05;53.64;98361.56;5029353;28;20211;-61
2022/06/02 08:27:25;;;;;;;10.48;5.00;;;;;;;27.99;52.89;98354.44;5030167;28;20268;-61
2022/06/02 08:30:17;;;;;;;7.88;4.75;;;;;;;28.05;53.10;98358.91;5036148;28;20194;-61
2022/06/02 08:32:59;;;;;;;7.55;4.35;;;;;;;27.97;52.79;98337.88;5031177;28;20279;-61
2022/06/02 08:35:38;;;;;;;9.05;4.72;;;;;;;28.17;51.92;98351.84;5036270;28;20536;-61
2022/06/02 08:38:23;;;;;;;7.20;4.45;;;;;;;28.18;52.01;98348.16;5026263;28;20239;-61
2022/06/02 08:43:54;;;;;;;5.78;4.40;;;;;;;28.16;51.00;98339.56;5030534;28;20740;-61
2022/06/02 08:46:38;;;;;;;9.30;4.70;;;;;;;28.14;51.30;98354.94;5040552;28;20188;-61
2022/06/02 08:49:34;;;;;;;6.20;4.38;;;;;;;28.21;51.39;98355.69;5036150;28;20558;-61
2022/06/02 08:52:17;;;;;;;9.48;4.57;;;;;;;28.26;51.42;98358.53;5042121;28;20185;-61
2022/06/02 08:55:04;;;;;;;11.35;4.85;;;;;;;28.34;51.27;98352.91;5040329;28;20190;-61
2022/06/02 08:58:13;;;;;;;8.02;4.43;;;;;;;28.29;51.61;98354.63;5045879;28;20223;-61
2022/06/02 09:00:56;;;;;;;7.75;4.10;;;;;;;28.33;51.45;98359.28;5019469;28;20173;-62
2022/06/02 09:03:50;;;;;;;7.72;4.40;;;;;;;28.48;51.41;98358.97;5020961;28;20296;-62
2022/06/02 09:06:24;;;;;;;4.90;3.80;;;;;;;28.19;50.66;98357.78;5032504;28;20313;-62
2022/06/02 09:08:52;;;;;;;7.32;4.60;;;;;;;28.29;51.31;98355.41;5042567;28;20209;-61
2022/06/02 09:11:36;;;;;;;6.50;4.28;;;;;;;28.35;51.95;98357.25;5039850;28;20204;-61
2022/06/02 09:14:30;;;;;;;7.50;3.70;;;;;;;28.42;51.08;98350.03;5040539;28;20182;-62
2022/06/02 09:16:57;;;;;;;5.55;3.75;;;;;;;28.48;50.87;98348.31;5041611;28;20230;-62
2022/06/02 09:19:25;;;;;;;3.90;3.47;;;;;;;28.64;49.97;98359.25;5032536;28;20975;-61
2022/06/02 09:22:10;;;;;;;8.45;4.00;;;;;;;28.78;50.46;98352.72;5019189;28;20283;-62
2022/06/02 09:25:12;;;;;;;4.95;3.75;;;;;;;28.98;50.33;98347.22;5021459;28;20304;-61
2022/06/02 09:27:56;;;;;;;4.28;3.63;;;;;;;29.16;49.41;98353.31;5043365;28;20192;-61
2022/06/02 09:30:43;;;;;;;6.00;3.70;;;;;;;29.26;48.49;98353.63;5034573;28;20193;-61
2022/06/02 09:33:38;;;;;;;5.93;3.35;;;;;;;29.38;47.86;98351.81;5034124;28;20185;-61
2022/06/02 09:36:52;;;;;;;8.40;4.05;;;;;;;29.42;48.41;98352.19;5033922;28;20178;-61
2022/06/02 09:39:55;;;;;;;6.20;3.58;;;;;;;29.46;47.07;98348.84;5038728;28;20204;-61
2022/06/02 09:42:42;;;;;;;3.40;2.88;;;;;;;29.48;47.19;98352.09;5018393;28;20267;-62
2022/06/02 09:45:27;;;;;;;5.75;4.05;;;;;;;29.39;47.79;98341.97;5019813;28;20196;-62
2022/06/02 09:48:11;;;;;;;6.35;3.72;;;;;;;29.25;47.63;98341.34;5037159;28;20186;-61
2022/06/02 09:51:14;;;;;;;5.00;3.83;;;;;;;29.17;49.07;98341.66;5038344;28;20270;-61
2022/06/02 09:53:48;;;;;;;7.70;3.90;;;;;;;29.26;48.44;98342.16;5040069;28;20275;-61
2022/06/02 09:56:45;;;;;;;5.10;3.28;;;;;;;29.49;46.92;98343.06;5035710;28;20689;-62
2022/06/02 09:59:26;;;;;;;3.63;3.33;;;;;;;29.45;47.07;98344.53;5034229;28;20192;-61
2022/06/02 10:02:02;;;;;;;6.47;3.55;;;;;;;29.53;46.12;98346.94;5038489;28;20189;-61
2022/06/02 10:04:34;;;;;;;6.93;3.80;;;;;;;29.68;46.25;98344.66;5038605;28;20215;-61
2022/06/02 10:07:14;;;;;;;4.93;3.33;;;;;;;29.71;44.50;98351.38;5040604;28;20327;-61
2022/06/02 10:10:12;;;;;;;4.80;3.40;;;;;;;29.82;45.18;98347.94;5044447;28;20200;-61
2022/06/02 10:12:56;;;;;;;4.18;3.17;;;;;;;29.73;45.17;98344.78;5030584;28;20566;-61
2022/06/02 10:15:46;;;;;;;4.95;3.38;;;;;;;29.78;43.93;98346.78;5042679;28;20250;-62
2022/06/02 10:18:30;;;;;;;5.70;3.40;;;;;;;29.88;44.00;98345.19;5033786;28;20186;-62
2022/06/02 10:21:25;;;;;;;6.57;3.17;;;;;;;30.04;44.44;98341.84;5048178;28;20181;-62
2022/06/02 10:24:15;;;;;;;5.38;3.05;;;;;;;30.10;44.21;98340.97;5019328;28;20795;-62
2022/06/02 10:27:09;;;;;;;4.38;3.40;;;;;;;30.21;43.97;98342.81;5019506;28;20192;-62
2022/06/02 10:30:05;;;;;;;5.63;3.00;;;;;;;30.39;44.11;98340.06;5033347;28;20197;-62
2022/06/02 10:32:47;;;;;;;5.13;3.70;;;;;;;30.67;42.47;98337.50;5037907;28;20577;-62
2022/06/02 10:35:31;;;;;;;6.63;3.20;;;;;;;30.85;43.10;98340.03;5037066;28;20195;-62
2022/06/02 10:38:33;;;;;;;3.33;3.03;;;;;;;30.97;41.46;98343.53;5038417;28;20185;-62
2022/06/02 10:41:21;;;;;;;4.82;2.90;;;;;;;30.72;41.78;98324.25;5034759;28;20208;-63
2022/06/02 10:43:55;;;;;;;5.10;3.28;;;;;;;30.97;40.68;98315.97;5029927;28;21102;-62
2022/06/02 10:46:59;;;;;;;6.82;3.75;;;;;;;31.32;40.79;98317.53;5018104;28;20182;-62
2022/06/02 10:49:44;;;;;;;5.22;3.50;;;;;;;31.50;41.02;98316.50;5021525;28;20597;-62
2022/06/02 10:52:31;;;;;;;6.13;3.80;;;;;;;31.59;39.27;98317.75;5037617;28;20268;-62
2022/06/02 10:55:34;;;;;;;3.38;3.08;;;;;;;31.82;39.31;98318.44;5039455;28;20181;-62
2022/06/02 10:58:18;;;;;;;3.20;2.88;;;;;;;32.19;36.73;98316.94;5034458;28;20249;-62
2022/06/02 11:01:06;;;;;;;2.95;2.70;;;;;;;32.33;36.89;98320.91;5028486;28;20182;-64
2022/06/02 11:04:11;;;;;;;4.50;2.58;;;;;;;32.61;34.76;98312.75;5040102;28;20688;-62
2022/06/02 11:06:54;;;;;;;3.75;2.28;;;;;;;32.91;33.77;98321.22;5016091;28;20235;-62
2022/06/02 11:09:48;;;;;;;3.13;2.83;;;;;;;32.97;33.14;98314.84;5018604;28;20185;-63
2022/06/02 11:12:34;;;;;;;7.05;2.47;;;;;;;33.24;32.45;98315.72;5031372;28;20212;-63
2022/06/02 11:15:18;;;;;;;4.32;2.72;;;;;;;33.39;32.98;98318.59;5036922;28;20187;-63
2022/06/02 11:18:15;;;;;;;2.95;2.75;;;;;;;33.58;32.20;98308.31;5037166;28;20568;-63
2022/06/02 11:21:00;;;;;;;4.93;2.90;;;;;;;33.78;31.27;98312.03;5044076;28;20181;-62
2022/06/02 11:23:48;;;;;;;3.30;1.90;;;;;;;34.00;30.83;98312.75;5033571;28;20608;-62
2022/06/02 11:26:46;;;;;;;5.47;2.50;;;;;;;34.19;28.76;98316.66;5027094;28;20224;-62
2022/06/02 11:29:29;;;;;;;3.08;2.15;;;;;;;34.10;28.42;98315.50;5017329;28;20190;-62
2022/06/02 11:32:13;;;;;;;2.63;2.42;;;;;;;33.88;29.48;98312.13;5024089;28;20181;-63
2022/06/02 11:35:09;;;;;;;12.63;2.70;;;;;;;34.10;29.59;98310.13;5032335;28;20190;-62
2022/06/02 11:38:07;;;;;;;3.97;2.40;;;;;;;33.76;29.43;98298.03;5036528;28;20188;-62
2022/06/02 11:40:56;;;;;;;5.50;2.17;;;;;;;33.76;30.18;98297.19;5036014;28;20173;-62
2022/06/02 11:43:44;;;;;;;5.50;2.55;;;;;;;33.90;29.38;98299.25;5031652;28;20269;-62
2022/06/02 11:46:44;;;;;;;5.75;2.83;;;;;;;33.97;28.96;98294.47;5037650;28;20195;-63
2022/06/02 11:49:22;;;;;;;5.95;3.05;;;;;;;33.89;29.94;98294.94;5036131;28;20201;-63
2022/06/02 11:52:16;;;;;;;8.57;2.55;;;;;;;33.81;27.72;98295.41;5036867;28;20222;-63
2022/06/02 11:54:59;;;;;;;3.25;2.00;;;;;;;34.09;28.31;98297.78;5034495;28;20174;-63
2022/06/02 11:57:33;;;;;;;6.25;2.13;;;;;;;34.37;28.03;98289.41;5040649;28;20709;-62
2022/06/02 12:00:23;;;;;;;5.55;2.38;;;;;;;34.66;27.90;98292.50;5035991;28;20263;-62
2022/06/02 12:03:06;;;;;;;4.35;1.95;;;;;;;34.82;28.68;98284.31;5038865;28;20666;-62
2022/06/02 12:05:47;;;;;;;3.17;1.92;;;;;;;34.74;26.71;98290.13;5039078;28;20192;-62
2022/06/02 12:08:45;;;;;;;3.97;1.73;;;;;;;34.70;27.82;98289.06;5032426;28;20195;-62
2022/06/02 12:11:32;;;;;;;2.90;1.83;;;;;;;34.62;26.98;98281.47;5036113;28;20700;-62
2022/06/02 12:14:38;;;;;;;5.93;1.80;;;;;;;34.15;27.82;98275.25;5039534;28;20234;-62
2022/06/02 12:17:41;;;;;;;4.15;2.20;;;;;;;34.52;29.24;98280.63;5036574;28;20188;-62
2022/06/02 12:20:22;;;;;;;2.78;2.10;;;;;;;34.77;28.42;98267.31;5037742;28;20191;-62
2022/06/02 12:22:53;;;;;;;3.28;1.88;;;;;;;35.03;26.80;98269.84;5036904;28;20201;-62
2022/06/02 12:25:39;;;;;;;4.07;1.92;;;;;;;35.07;27.92;98264.75;5035462;28;20189;-63
2022/06/02 12:28:15;;;;;;;3.05;1.92;;;;;;;35.36;27.68;98272.13;5032190;28;20264;-63
2022/06/02 12:30:59;;;;;;;3.42;1.90;;;;;;;35.67;26.22;98268.38;5015625;28;20213;-63
2022/06/02 12:33:36;;;;;;;4.75;2.00;;;;;;;35.92;25.95;98271.13;5017248;28;20189;-63
2022/06/02 12:36:29;;;;;;;1.98;1.83;;;;;;;36.14;25.50;98266.22;5029784;28;20232;-63
2022/06/02 12:39:39;;;;;;;2.13;1.92;;;;;;;36.18;25.90;98266.56;5034763;28;20180;-63
2022/06/02 12:42:35;;;;;;;3.45;2.00;;;;;;;35.34;26.20;98258.13;5030519;28;20272;-63
2022/06/02 12:45:10;;;;;;;4.05;2.20;;;;;;;35.75;26.62;98259.81;5034877;28;20209;-62
2022/06/02 12:47:56;;;;;;;4.40;2.00;;;;;;;35.96;26.63;98250.63;5039625;28;20181;-62
2022/06/02 12:50:39;;;;;;;4.78;1.85;;;;;;;35.69;26.87;98249.25;5034921;28;20212;-62
2022/06/02 12:53:07;;;;;;;2.53;2.13;;;;;;;35.58;27.74;98243.06;5035919;28;20212;-63
2022/06/02 12:56:20;;;;;;;2.90;2.08;;;;;;;35.64;27.99;98250.06;5038904;28;20203;-63
2022/06/02 12:58:45;;;;;;;2.83;2.17;;;;;;;36.18;27.20;98245.00;5031695;28;20659;-62
2022/06/02 13:01:26;;;;;;;2.40;2.20;;;;;;;36.63;26.46;98251.09;5041411;28;20212;-62
2022/06/02 13:04:29;;;;;;;3.47;2.22;;;;;;;37.01;26.54;98242.25;5036250;28;20565;-62